createdAt,value
2023-02-18T00:01:11.909Z,22.42
2023-02-18T00:03:42.204Z,23.30
2023-02-18T00:06:16.871Z,25.42
2023-02-18T00:08:47.216Z,27.63
2023-02-18T00:11:17.822Z,32.28
2023-02-18T00:13:54.649Z,33.53
2023-02-18T00:16:24.978Z,33.17
2023-02-18T00:18:57.501Z,29.15
2023-02-18T00:21:27.138Z,28.83
2023-02-18T00:23:57.106Z,26.15
2023-02-18T00:26:26.726Z,31.88
2023-02-18T00:28:57.253Z,25.67
2023-02-18T00:31:29.834Z,22.83
2023-02-18T00:34:01.630Z,26.58
2023-02-18T00:36:31.220Z,19.90
2023-02-18T00:39:04.029Z,22.75
2023-02-18T00:41:34.331Z,21.58
2023-02-18T00:44:05.621Z,24.83
2023-02-18T00:46:37.055Z,26.85
2023-02-18T00:49:07.452Z,25.58
2023-02-18T00:51:38.326Z,23.30
2023-02-18T00:54:07.580Z,21.55
2023-02-18T00:56:37.150Z,24.67
2023-02-18T00:59:07.921Z,26.70
2023-02-18T01:01:37.123Z,19.70
2023-02-18T01:04:06.689Z,28.50
2023-02-18T01:06:36.030Z,30.67
2023-02-18T01:09:05.823Z,37.38
2023-02-18T01:11:35.143Z,27.00
2023-02-18T01:14:04.555Z,34.13
2023-02-18T01:16:35.073Z,51.53
2023-02-18T01:19:04.381Z,44.88
2023-02-18T01:21:33.524Z,37.90
2023-02-18T01:24:02.934Z,36.08
2023-02-18T01:26:32.127Z,29.90
2023-02-18T01:29:01.197Z,32.53
2023-02-18T01:31:30.474Z,23.67
2023-02-18T01:34:02.684Z,27.27
2023-02-18T01:36:31.792Z,23.85
2023-02-18T01:39:00.850Z,22.38
2023-02-18T01:41:30.182Z,25.90
2023-02-18T01:44:17.227Z,30.15
2023-02-18T01:46:49.250Z,28.83
2023-02-18T01:49:25.412Z,32.00
2023-02-18T01:52:01.276Z,30.75
2023-02-18T01:54:36.725Z,31.77
2023-02-18T01:57:08.765Z,26.90
2023-02-18T01:59:42.810Z,29.13
2023-02-18T02:02:16.574Z,34.22
2023-02-18T02:04:47.834Z,27.70
2023-02-18T02:07:19.301Z,30.08
2023-02-18T02:09:51.372Z,29.58
2023-02-18T02:12:41.611Z,26.52
2023-02-18T02:15:30.593Z,33.95
2023-02-18T02:18:23.479Z,27.27
2023-02-18T02:21:41.573Z,27.08
2023-02-18T02:24:37.691Z,26.48
2023-02-18T02:27:27.444Z,32.22
2023-02-18T02:30:49.960Z,26.33
2023-02-18T02:34:06.642Z,28.73
2023-02-18T02:36:47.044Z,26.05
2023-02-18T02:39:24.516Z,27.35
2023-02-18T02:42:07.970Z,24.15
2023-02-18T02:44:45.912Z,29.02
2023-02-18T02:47:39.427Z,22.85
2023-02-18T02:50:15.020Z,27.88
2023-02-18T02:52:51.597Z,24.83
2023-02-18T02:55:22.791Z,22.92
2023-02-18T02:57:57.119Z,26.98
2023-02-18T03:00:48.718Z,23.08
2023-02-18T03:03:40.211Z,23.88
2023-02-18T03:06:37.028Z,18.40
2023-02-18T03:09:15.249Z,19.55
2023-02-18T03:11:52.845Z,19.98
2023-02-18T03:14:31.256Z,18.45
2023-02-18T03:17:05.008Z,21.33
2023-02-18T03:19:39.049Z,21.55
2023-02-18T03:22:14.698Z,23.10
2023-02-18T03:24:48.171Z,22.80
2023-02-18T03:27:22.836Z,25.40
2023-02-18T03:29:59.128Z,21.63
2023-02-18T03:32:30.592Z,19.98
2023-02-18T03:35:09.012Z,20.58
2023-02-18T03:37:43.367Z,23.00
2023-02-18T03:40:15.127Z,21.98
2023-02-18T03:42:44.209Z,23.98
2023-02-18T03:45:13.824Z,19.50
2023-02-18T03:47:43.998Z,19.98
2023-02-18T03:50:13.102Z,22.73
2023-02-18T03:52:42.164Z,26.10
2023-02-18T03:55:13.143Z,22.80
2023-02-18T03:57:42.295Z,27.20
2023-02-18T04:00:12.699Z,23.75
2023-02-18T04:02:44.737Z,24.15
2023-02-18T04:05:14.308Z,23.70
2023-02-18T04:07:43.440Z,22.63
2023-02-18T04:10:14.193Z,20.38
2023-02-18T04:12:43.309Z,21.98
2023-02-18T04:15:13.890Z,20.77
2023-02-18T04:17:43.041Z,23.77
2023-02-18T04:20:13.391Z,23.48
2023-02-18T04:22:42.517Z,23.15
2023-02-18T04:25:13.068Z,27.60
2023-02-18T04:27:42.209Z,19.25
2023-02-18T04:30:12.481Z,23.70
2023-02-18T04:32:41.927Z,18.92
2023-02-18T04:35:11.002Z,21.20
2023-02-18T04:37:40.058Z,25.90
2023-02-18T04:40:10.830Z,23.70
2023-02-18T04:42:41.364Z,19.63
2023-02-18T04:45:11.012Z,22.58
2023-02-18T04:47:40.203Z,18.45
2023-02-18T04:50:10.980Z,25.83
2023-02-18T04:52:40.069Z,16.90
2023-02-18T04:55:09.697Z,19.85
2023-02-18T04:57:40.206Z,19.75
2023-02-18T05:00:14.513Z,22.08
2023-02-18T05:02:43.794Z,17.95
2023-02-18T05:05:13.739Z,21.88
2023-02-18T05:07:43.491Z,19.33
2023-02-18T05:10:16.333Z,29.85
2023-02-18T05:12:46.840Z,20.70
2023-02-18T05:15:15.903Z,23.77
2023-02-18T05:17:45.029Z,22.50
2023-02-18T05:20:14.927Z,21.98
2023-02-18T05:22:44.257Z,16.95
2023-02-18T05:25:13.411Z,19.13
2023-02-18T05:27:42.629Z,18.67
2023-02-18T05:30:14.064Z,25.30
2023-02-18T05:32:43.323Z,17.83
2023-02-18T05:35:13.641Z,24.98
2023-02-18T05:37:42.942Z,18.02
2023-02-18T05:40:13.306Z,20.65
2023-02-18T05:42:42.385Z,20.88
2023-02-18T05:45:12.986Z,18.20
2023-02-18T05:47:42.085Z,15.02
2023-02-18T05:50:11.860Z,17.92
2023-02-18T05:52:40.989Z,27.05
2023-02-18T05:55:10.159Z,22.38
2023-02-18T05:57:39.301Z,23.67
2023-02-18T06:00:10.473Z,19.98
2023-02-18T06:02:41.165Z,18.75
2023-02-18T06:05:11.356Z,20.25
2023-02-18T06:07:40.916Z,20.42
2023-02-18T06:10:12.402Z,22.10
2023-02-18T06:12:42.256Z,23.17
2023-02-18T06:15:12.474Z,18.67
2023-02-18T06:17:43.565Z,26.10
2023-02-18T06:20:14.429Z,19.42
2023-02-18T06:22:44.351Z,18.75
2023-02-18T06:25:14.254Z,18.05
2023-02-18T06:27:46.821Z,24.77
2023-02-18T06:30:17.406Z,18.77
2023-02-18T06:32:48.856Z,19.17
2023-02-18T06:35:18.958Z,15.90
2023-02-18T06:37:49.145Z,17.38
2023-02-18T06:40:19.891Z,13.68
2023-02-18T06:42:54.065Z,19.95
2023-02-18T06:45:24.056Z,21.27
2023-02-18T06:47:55.477Z,23.63
2023-02-18T06:50:25.187Z,25.23
2023-02-18T06:52:55.278Z,22.42
2023-02-18T06:55:25.116Z,23.05
2023-02-18T06:57:55.059Z,19.23
2023-02-18T07:00:24.963Z,18.70
2023-02-18T07:02:56.554Z,19.25
2023-02-18T07:05:26.406Z,21.02
2023-02-18T07:07:56.382Z,15.23
2023-02-18T07:10:26.933Z,17.15
2023-02-18T07:12:56.647Z,24.13
2023-02-18T07:15:28.189Z,18.60
2023-02-18T07:18:00.551Z,18.90
2023-02-18T07:20:30.549Z,17.30
2023-02-18T07:23:00.545Z,18.30
2023-02-18T07:25:30.473Z,17.60
2023-02-18T07:28:00.536Z,18.13
2023-02-18T07:30:32.752Z,15.88
2023-02-18T07:33:04.598Z,15.13
2023-02-18T07:35:34.672Z,19.30
2023-02-18T07:38:04.850Z,23.27
2023-02-18T07:40:36.019Z,18.70
2023-02-18T07:43:05.803Z,20.10
2023-02-18T07:45:38.408Z,15.63
2023-02-18T07:48:10.051Z,18.10
2023-02-18T07:50:42.012Z,18.33
2023-02-18T07:53:14.362Z,14.93
2023-02-18T07:55:51.010Z,17.23
2023-02-18T07:58:22.888Z,20.85
2023-02-18T08:01:06.289Z,16.05
2023-02-18T08:03:37.814Z,17.70
2023-02-18T08:46:08.935Z,17.33
2023-02-18T08:48:45.064Z,17.45
2023-02-18T08:51:17.315Z,28.77
2023-02-18T08:53:47.286Z,20.40
2023-02-18T08:56:17.256Z,19.70
2023-02-18T08:58:46.491Z,21.60
2023-02-18T09:01:16.914Z,18.58
2023-02-18T09:03:46.101Z,21.35
2023-02-18T09:06:15.122Z,17.92
2023-02-18T09:08:44.170Z,20.80
2023-02-18T09:11:13.551Z,18.58
2023-02-18T09:13:42.893Z,17.73
2023-02-18T09:16:15.209Z,18.05
2023-02-18T09:18:46.385Z,15.25
2023-02-18T09:21:20.748Z,18.52
2023-02-18T09:23:52.028Z,18.98
2023-02-18T09:26:25.027Z,23.02
2023-02-18T09:28:57.159Z,25.88
2023-02-18T09:31:28.208Z,22.48
2023-02-18T09:34:01.928Z,36.35
2023-02-18T09:36:31.705Z,26.23
2023-02-18T09:39:01.683Z,23.15
2023-02-18T09:41:39.645Z,30.02
2023-02-18T09:44:17.262Z,26.55
2023-02-18T09:46:53.303Z,32.97
2023-02-18T09:49:28.142Z,30.35
2023-02-18T09:52:02.208Z,26.95
2023-02-18T09:54:31.245Z,31.88
2023-02-18T09:57:01.002Z,25.90
2023-02-18T09:59:32.143Z,21.30
2023-02-18T10:02:03.228Z,26.30
2023-02-18T10:04:42.851Z,26.85
2023-02-18T10:07:23.094Z,30.80
2023-02-18T10:09:55.309Z,24.52
2023-02-18T10:12:27.407Z,33.17
2023-02-18T10:14:59.985Z,21.67
2023-02-18T10:17:34.195Z,24.00
2023-02-18T10:20:07.984Z,29.30
2023-02-18T10:22:39.995Z,24.90
2023-02-18T10:25:10.460Z,29.27
2023-02-18T10:27:42.135Z,33.88
2023-02-18T10:30:25.552Z,31.60
2023-02-18T10:33:02.831Z,28.85
2023-02-18T10:35:42.078Z,22.90
2023-02-18T10:38:19.830Z,21.30
2023-02-18T10:41:02.047Z,24.52
2023-02-18T10:43:43.880Z,15.15
2023-02-18T10:46:23.993Z,22.80
2023-02-18T10:49:11.840Z,21.42
2023-02-18T10:51:49.093Z,15.80
2023-02-18T10:56:52.338Z,15.05
2023-02-18T10:59:23.585Z,15.40
2023-02-18T11:01:58.250Z,16.63
2023-02-18T11:04:37.967Z,18.27
2023-02-18T11:07:16.754Z,18.75
2023-02-18T11:09:51.329Z,16.98
2023-02-18T11:12:24.835Z,18.60
2023-02-18T11:15:17.538Z,17.65
2023-02-18T11:17:48.966Z,15.70
2023-02-18T11:20:33.948Z,16.58
2023-02-18T11:23:20.754Z,14.55
2023-02-18T11:26:05.351Z,17.02
2023-02-18T11:28:45.544Z,15.52
2023-02-18T11:31:24.126Z,14.82
2023-02-18T11:33:56.828Z,19.92
2023-02-18T11:36:30.564Z,15.60
2023-02-18T11:39:06.362Z,13.35
2023-02-18T11:41:39.863Z,13.55
2023-02-18T11:44:23.672Z,16.33
2023-02-18T11:47:03.758Z,14.88
2023-02-18T11:49:35.239Z,17.27
2023-02-18T11:52:19.397Z,14.57
2023-02-18T11:55:04.786Z,14.88
2023-02-18T11:57:38.942Z,13.02
2023-02-18T12:00:23.163Z,14.60
2023-02-18T12:02:57.699Z,12.70
2023-02-18T12:05:35.135Z,13.38
2023-02-18T12:08:11.681Z,15.55
2023-02-18T12:10:47.923Z,12.80
2023-02-18T12:13:26.953Z,15.35
2023-02-18T12:16:10.439Z,14.98
2023-02-18T12:19:15.811Z,14.02
2023-02-18T12:21:59.851Z,17.98
2023-02-18T12:24:56.098Z,12.35
2023-02-18T12:27:35.968Z,16.60
2023-02-18T12:30:39.053Z,15.73
2023-02-18T12:33:21.003Z,13.40
2023-02-18T12:36:04.184Z,17.13
2023-02-18T12:38:55.778Z,14.95
2023-02-18T12:41:58.515Z,18.98
2023-02-18T12:44:45.195Z,15.88
2023-02-18T12:47:51.502Z,17.90
2023-02-18T12:50:53.025Z,18.02
2023-02-18T12:53:50.234Z,20.50
2023-02-18T12:56:53.537Z,20.75
2023-02-18T12:59:53.603Z,21.38
2023-02-18T13:02:48.602Z,20.48
2023-02-18T13:05:32.250Z,17.05
2023-02-18T13:08:22.541Z,15.60
2023-02-18T13:11:14.394Z,14.10
2023-02-18T13:13:51.621Z,15.95
2023-02-18T13:16:22.950Z,13.77
2023-02-18T13:19:03.722Z,14.35
2023-02-18T13:21:33.131Z,13.98
2023-02-18T13:24:06.037Z,16.33
2023-02-18T13:26:36.425Z,17.13
2023-02-18T13:29:24.008Z,14.95
2023-02-18T13:32:10.984Z,21.77
2023-02-18T13:34:48.007Z,19.40
2023-02-18T13:37:26.927Z,18.65
2023-02-18T13:39:58.555Z,17.60
2023-02-18T13:42:37.047Z,22.23
2023-02-18T13:45:29.109Z,18.70
2023-02-18T13:48:01.239Z,20.10
2023-02-18T13:50:40.316Z,22.02
2023-02-18T13:53:25.616Z,22.33
2023-02-18T13:55:59.414Z,19.48
2023-02-18T13:58:37.248Z,20.15
2023-02-18T14:01:13.066Z,20.70
2023-02-18T14:03:57.877Z,25.27
2023-02-18T14:06:31.518Z,21.95
2023-02-18T14:09:36.361Z,25.52
2023-02-18T14:12:28.434Z,24.77
2023-02-18T14:15:00.721Z,27.75
2023-02-18T14:17:50.234Z,29.70
2023-02-18T14:20:51.505Z,29.75
2023-02-18T14:23:59.322Z,33.00
2023-02-18T14:26:34.913Z,29.60
2023-02-18T14:29:12.116Z,30.63
2023-02-18T14:31:59.006Z,31.73
2023-02-18T14:35:10.743Z,35.47
2023-02-18T14:38:25.462Z,35.38
2023-02-18T14:41:27.301Z,35.95
2023-02-18T14:44:20.872Z,36.35
2023-02-18T14:47:12.435Z,35.42
2023-02-18T14:49:47.162Z,37.25
2023-02-18T14:52:32.157Z,34.53
2023-02-18T14:55:06.259Z,35.45
2023-02-18T14:57:41.307Z,36.38
2023-02-18T15:00:18.783Z,37.53
2023-02-18T15:02:51.572Z,37.28
2023-02-18T15:05:24.097Z,37.75
2023-02-18T15:08:01.063Z,37.38
2023-02-18T15:10:40.736Z,40.00
2023-02-18T15:13:18.164Z,36.50
2023-02-18T15:15:52.028Z,39.95
2023-02-18T15:18:31.328Z,40.50
2023-02-18T15:21:03.364Z,40.78
2023-02-18T15:23:38.278Z,44.00
2023-02-18T15:26:14.178Z,41.38
2023-02-18T15:28:54.695Z,44.22
2023-02-18T15:31:28.223Z,47.05
2023-02-18T15:33:59.205Z,47.22
2023-02-18T15:36:28.440Z,45.83
2023-02-18T15:38:58.431Z,42.03
2023-02-18T15:41:38.220Z,46.83
2023-02-18T15:44:09.332Z,47.92
2023-02-18T15:46:38.443Z,42.60
2023-02-18T15:49:09.466Z,42.10
2023-02-18T15:51:38.596Z,43.05
2023-02-18T15:54:07.673Z,46.53
2023-02-18T15:56:45.402Z,49.03
2023-02-18T15:59:21.572Z,49.17
2023-02-18T16:01:52.679Z,45.47
2023-02-18T16:04:22.732Z,45.72
2023-02-18T16:06:54.014Z,45.90
2023-02-18T16:09:27.318Z,56.17
2023-02-18T16:12:03.425Z,58.03
2023-02-18T16:14:35.342Z,50.50
2023-02-18T16:17:17.047Z,50.55
2023-02-18T16:20:04.067Z,45.45
2023-02-18T16:25:18.723Z,53.40
2023-02-18T16:27:55.061Z,53.20
2023-02-18T16:30:26.233Z,64.35
2023-02-18T16:32:55.366Z,62.33
2023-02-18T16:35:25.606Z,60.70
2023-02-18T16:37:57.771Z,59.95
2023-02-18T16:40:31.258Z,57.70
2023-02-18T16:43:13.180Z,60.30
2023-02-18T16:45:44.485Z,64.82
2023-02-18T16:48:20.693Z,58.50
2023-02-18T16:50:52.749Z,63.80
2023-02-18T16:53:22.148Z,64.25
2023-02-18T16:55:52.178Z,61.95
2023-02-18T16:58:24.554Z,61.08
2023-02-18T17:00:53.765Z,61.78
2023-02-18T17:03:23.117Z,65.78
2023-02-18T17:05:54.697Z,67.00
2023-02-18T17:08:28.923Z,66.63
2023-02-18T17:10:59.631Z,66.65
2023-02-18T17:13:31.656Z,69.93
2023-02-18T17:16:03.662Z,69.10
2023-02-18T17:18:33.317Z,73.30
2023-02-18T17:21:03.599Z,63.28
2023-02-18T17:23:32.539Z,68.10
2023-02-18T17:26:01.490Z,63.38
2023-02-18T17:28:31.994Z,67.85
2023-02-18T17:31:01.034Z,73.97
2023-02-18T17:33:30.026Z,76.93
2023-02-18T17:36:01.348Z,74.88
2023-02-18T17:38:30.339Z,68.18
2023-02-18T17:40:59.260Z,70.50
2023-02-18T17:43:28.277Z,63.70
2023-02-18T17:46:00.405Z,61.83
2023-02-18T17:48:29.828Z,57.17
2023-02-18T17:50:59.412Z,72.07
2023-02-18T17:53:29.631Z,71.97
2023-02-18T17:55:58.540Z,63.25
2023-02-18T17:58:27.719Z,71.13
2023-02-18T18:00:59.385Z,60.63
2023-02-18T18:03:28.516Z,66.47
2023-02-18T18:05:57.715Z,73.10
2023-02-18T18:08:26.691Z,71.95
2023-02-18T18:10:58.782Z,64.65
2023-02-18T18:13:34.669Z,69.00
2023-02-18T18:16:05.969Z,67.43
2023-02-18T18:18:36.941Z,64.00
2023-02-18T18:21:06.968Z,70.90
2023-02-18T18:23:36.099Z,70.55
2023-02-18T18:26:05.451Z,61.55
2023-02-18T18:28:36.128Z,57.42
2023-02-18T18:31:08.097Z,64.95
2023-02-18T18:33:37.350Z,74.60
2023-02-18T18:36:10.314Z,67.18
2023-02-18T18:38:40.398Z,65.78
2023-02-18T18:41:15.330Z,70.75
2023-02-18T18:43:44.321Z,66.82
2023-02-18T18:46:14.959Z,61.83
2023-02-18T18:48:43.986Z,65.47
2023-02-18T18:51:17.161Z,60.38
2023-02-18T18:53:46.259Z,58.50
2023-02-18T18:56:15.413Z,58.60
2023-02-18T18:58:44.532Z,63.15
2023-02-18T19:01:18.886Z,65.10
2023-02-18T19:03:48.538Z,66.75
2023-02-18T19:06:18.360Z,66.07
2023-02-18T19:08:47.944Z,63.13
2023-02-18T19:11:18.337Z,75.35
2023-02-18T19:13:47.437Z,64.63
2023-02-18T19:16:22.333Z,62.08
2023-02-18T19:18:51.720Z,69.03
2023-02-18T19:21:21.043Z,78.28
2023-02-18T19:23:50.443Z,74.28
2023-02-18T19:26:20.587Z,75.22
2023-02-18T19:28:49.668Z,68.50
2023-02-18T19:31:24.011Z,72.93
2023-02-18T19:33:54.352Z,64.78
2023-02-18T19:36:23.467Z,63.60
2023-02-18T19:38:52.778Z,62.08
2023-02-18T19:41:21.771Z,64.15
2023-02-18T19:43:50.769Z,63.65
2023-02-18T19:46:21.249Z,72.10
2023-02-18T19:48:52.620Z,74.72
2023-02-18T19:51:23.170Z,69.63
2023-02-18T19:53:52.825Z,60.72
2023-02-18T19:56:21.788Z,67.10
2023-02-18T19:58:50.772Z,63.47
2023-02-18T20:01:28.709Z,72.78
2023-02-18T20:03:57.674Z,82.82
2023-02-18T20:06:26.631Z,76.25
2023-02-18T20:08:55.584Z,70.18
2023-02-18T20:11:24.706Z,69.97
2023-02-18T20:13:53.796Z,73.50
2023-02-18T20:16:24.153Z,65.93
2023-02-18T20:18:54.034Z,62.00
2023-02-18T20:21:26.300Z,56.58
2023-02-18T20:23:56.069Z,61.55
2023-02-18T20:26:25.612Z,58.85
2023-02-18T20:28:54.509Z,62.58
2023-02-18T20:31:24.964Z,58.97
2023-02-18T20:33:57.259Z,69.38
2023-02-18T20:36:27.855Z,66.93
2023-02-18T20:39:02.452Z,71.05
2023-02-18T20:41:37.114Z,62.55
2023-02-18T20:44:06.694Z,65.85
2023-02-18T20:46:38.135Z,62.60
2023-02-18T20:49:09.058Z,60.13
2023-02-18T20:51:38.590Z,62.60
2023-02-18T20:54:10.230Z,66.18
2023-02-18T20:56:40.746Z,60.90
2023-02-18T20:59:12.686Z,71.10
2023-02-18T21:01:43.868Z,67.45
2023-02-18T21:04:13.818Z,60.55
2023-02-18T21:06:45.404Z,60.13
2023-02-18T21:09:15.661Z,66.80
2023-02-18T21:11:45.597Z,60.10
2023-02-18T21:14:14.610Z,56.22
2023-02-18T21:30:20.968Z,54.97
2023-02-18T21:32:50.030Z,61.35
2023-02-18T21:35:19.185Z,58.20
2023-02-18T21:37:48.204Z,50.45
2023-02-18T21:40:17.497Z,52.10
2023-02-18T21:42:47.440Z,59.97
2023-02-18T21:45:20.333Z,53.25
2023-02-18T21:47:50.924Z,54.03
2023-02-18T21:50:20.140Z,53.97
2023-02-18T21:52:49.063Z,51.72
2023-02-18T21:55:18.294Z,49.85
2023-02-18T21:57:47.220Z,47.20
2023-02-18T22:00:21.047Z,51.03
2023-02-18T22:02:51.777Z,47.25
2023-02-18T22:05:21.459Z,47.28
2023-02-18T22:07:50.520Z,46.47
2023-02-18T22:10:20.084Z,45.75
2023-02-18T22:12:49.359Z,47.78
2023-02-18T22:15:18.663Z,45.88
2023-02-18T22:17:47.953Z,44.78
2023-02-18T22:20:19.575Z,46.30
2023-02-18T22:22:48.546Z,54.95
2023-02-18T22:25:17.579Z,48.72
2023-02-18T22:27:46.682Z,52.22
2023-02-18T22:30:18.835Z,44.30
2023-02-18T22:32:47.906Z,48.72
2023-02-18T22:35:18.600Z,47.47
2023-02-18T22:37:47.574Z,43.85
2023-02-18T22:40:16.712Z,45.55
2023-02-18T22:42:45.755Z,45.47
2023-02-18T22:45:14.686Z,52.42
2023-02-18T22:47:43.834Z,51.70
2023-02-18T22:50:12.806Z,52.72
2023-02-18T22:52:43.638Z,48.83
2023-02-18T22:55:12.680Z,45.20
2023-02-18T22:57:42.130Z,44.42
2023-02-18T23:00:13.458Z,48.10
2023-02-18T23:02:42.611Z,51.38
2023-02-18T23:05:11.569Z,48.20
2023-02-18T23:07:41.977Z,47.33
2023-02-18T23:10:11.013Z,49.72
2023-02-18T23:12:40.010Z,51.90
2023-02-18T23:15:11.034Z,48.60
2023-02-18T23:17:41.465Z,48.50
2023-02-18T23:20:11.407Z,51.65
2023-02-18T23:22:41.975Z,50.40
2023-02-18T23:25:12.581Z,53.55
2023-02-18T23:27:41.558Z,45.13
2023-02-18T23:30:12.819Z,52.13
2023-02-18T23:32:41.796Z,47.72
2023-02-18T23:35:10.732Z,48.03
2023-02-18T23:37:57.228Z,55.45
2023-02-18T23:40:27.613Z,49.25
2023-02-18T23:42:57.246Z,48.55
2023-02-18T23:45:26.428Z,51.10
2023-02-18T23:47:55.367Z,46.08
2023-02-18T23:50:24.645Z,59.70
2023-02-18T23:52:54.200Z,41.83
2023-02-18T23:55:23.244Z,46.90
2023-02-18T23:57:53.529Z,45.15
